This is the latest recevied weather packets stored in our database for station/object KD0MAC. If no packets are shown the sender has not sent any weather packets the latest 10 day(s).
| Time | Temp. | Humidity | Pressure | Rain* | Wind** | Luminosity | Snow |
|---|---|---|---|---|---|---|---|
| 1787902808 | 18.89° C | 94% | 1020.3 hPa | 0.51 mm | - | 0 W/m² | - |
| 1787902509 | 18.89° C | 94% | 1020.3 hPa | 0.51 mm | - | 0 W/m² | - |
| 1787902209 | 18.89° C | 94% | 1020.3 hPa | 0.51 mm | - | 0 W/m² | - |
| 1787901909 | 18.89° C | 94% | 1020 hPa | 0.51 mm | - | 0 W/m² | - |
| 1787901609 | 18.89° C | 94% | 1020.3 hPa | 0.51 mm | - | 0 W/m² | - |
| 1787901308 | 18.89° C | 94% | 1021 hPa | 0.51 mm | - | 0 W/m² | - |
| 1787901014 | 18.89° C | 95% | 1021.3 hPa | 0.51 mm | - | 0 W/m² | - |
| 1787900419 | 18.33° C | 94% | 1021.7 hPa | 1.02 mm | - | 0 W/m² | - |
| 1787900111 | 18.33° C | 94% | 1022.4 hPa | 1.52 mm | - | 0 W/m² | - |
| 1787899810 | 18.33° C | 94% | 1022.7 hPa | 2.54 mm | - | 0 W/m² | - |
| 1787899509 | 18.33° C | 94% | 1023 hPa | 2.54 mm | - | 0 W/m² | - |
| 1787899209 | 18.33° C | 94% | 1023 hPa | 2.54 mm | - | 0 W/m² | - |
| 1787898909 | 18.33° C | 94% | 1022.7 hPa | 2.54 mm | - | 0 W/m² | - |
| 1787898609 | 18.89° C | 94% | 1022.4 hPa | 2.54 mm | - | 0 W/m² | - |
| 1787898310 | 18.33° C | 94% | 1023 hPa | 2.54 mm | - | 0 W/m² | - |
| 1787898008 | 18.33° C | 93% | 1022.7 hPa | 2.54 mm | - | 0 W/m² | - |
| 1787897710 | 18.33° C | 93% | 1022.7 hPa | 2.29 mm | - | 0 W/m² | - |
| 1787897409 | 18.33° C | 93% | 1023 hPa | 2.03 mm | - | 0 W/m² | - |
| 1787897109 | 18.33° C | 92% | 1023 hPa | 1.78 mm | - | 0 W/m² | - |
| 1787896812 | 18.33° C | 92% | 1023 hPa | 1.27 mm | - | 0 W/m² | - |
| 1787896508 | 18.33° C | 92% | 1023.4 hPa | 0.76 mm | - | 0 W/m² | - |
| 1787895909 | 18.89° C | 88% | 1022.7 hPa | 0 mm | - | 0 W/m² | - |
| 1787895608 | 19.44° C | 84% | 1023 hPa | 0 mm | - | 0 W/m² | - |
| 1787895309 | 20° C | 78% | 1022.7 hPa | 0 mm | - | 0 W/m² | - |
| 1787894709 | 21.67° C | 69% | 1022 hPa | 0 mm | - | 0 W/m² | - |
* Rain latest hour (hover to see other rain measurements)
** Current wind speed in m/s (hover to see current wind gust speed)